sensor_id;sensor_type;location;lat;lon;timestamp;pressure;altitude;pressure_sealevel;temperature;humidity
20955;BME280;10636;19.390;-99.256;2023-08-31T04:32:49;78063.94;;;24.99;45.49
20955;BME280;10636;19.390;-99.256;2023-08-31T04:35:17;78067.56;;;25.06;45.33
20955;BME280;10636;19.390;-99.256;2023-08-31T04:37:49;78065.13;;;25.12;45.25
20955;BME280;10636;19.390;-99.256;2023-08-31T04:40:17;78061.94;;;25.15;45.32
20955;BME280;10636;19.390;-99.256;2023-08-31T04:42:46;78068.81;;;25.20;45.04
20955;BME280;10636;19.390;-99.256;2023-08-31T04:45:14;78070.28;;;25.23;45.20
20955;BME280;10636;19.390;-99.256;2023-08-31T04:47:43;78074.44;;;25.26;45.03
20955;BME280;10636;19.390;-99.256;2023-08-31T04:50:13;78069.19;;;25.30;44.97
20955;BME280;10636;19.390;-99.256;2023-08-31T04:52:42;78070.72;;;25.36;44.83
20955;BME280;10636;19.390;-99.256;2023-08-31T04:55:09;78074.88;;;25.39;44.73
20955;BME280;10636;19.390;-99.256;2023-08-31T04:57:39;78076.34;;;25.42;44.65
20955;BME280;10636;19.390;-99.256;2023-08-31T05:00:09;78073.81;;;25.46;44.69
20955;BME280;10636;19.390;-99.256;2023-08-31T05:02:38;78082.63;;;25.48;44.73
20955;BME280;10636;19.390;-99.256;2023-08-31T05:05:07;78075.34;;;25.51;44.34
20955;BME280;10636;19.390;-99.256;2023-08-31T05:07:38;78066.69;;;25.52;44.16
20955;BME280;10636;19.390;-99.256;2023-08-31T05:10:07;78081.56;;;25.55;44.22
20955;BME280;10636;19.390;-99.256;2023-08-31T05:12:36;78071.50;;;25.56;44.33
20955;BME280;10636;19.390;-99.256;2023-08-31T05:15:10;78079.66;;;25.58;44.22
20955;BME280;10636;19.390;-99.256;2023-08-31T05:17:40;78083.78;;;25.61;44.24
20955;BME280;10636;19.390;-99.256;2023-08-31T05:20:11;78091.94;;;25.63;44.46
20955;BME280;10636;19.390;-99.256;2023-08-31T05:22:41;78080.56;;;25.65;44.02
20955;BME280;10636;19.390;-99.256;2023-08-31T05:25:10;78077.19;;;25.64;44.42
20955;BME280;10636;19.390;-99.256;2023-08-31T05:27:38;78081.31;;;25.67;44.16
20955;BME280;10636;19.390;-99.256;2023-08-31T05:30:08;78073.34;;;25.69;44.08
20955;BME280;10636;19.390;-99.256;2023-08-31T05:32:39;78084.16;;;25.71;43.71
20955;BME280;10636;19.390;-99.256;2023-08-31T05:35:09;78080.16;;;25.72;43.94
20955;BME280;10636;19.390;-99.256;2023-08-31T05:37:41;78080.28;;;25.74;43.80
20955;BME280;10636;19.390;-99.256;2023-08-31T05:40:11;78077.59;;;25.74;44.12
20955;BME280;10636;19.390;-99.256;2023-08-31T05:42:41;78081.66;;;25.75;44.23
20955;BME280;10636;19.390;-99.256;2023-08-31T05:45:13;78081.66;;;25.75;44.03
20955;BME280;10636;19.390;-99.256;2023-08-31T05:47:43;78082.34;;;25.76;44.12
20955;BME280;10636;19.390;-99.256;2023-08-31T05:50:15;78076.28;;;25.75;44.00
20955;BME280;10636;19.390;-99.256;2023-08-31T05:52:46;78076.28;;;25.75;44.33
20955;BME280;10636;19.390;-99.256;2023-08-31T05:55:26;78076.34;;;25.77;44.21
20955;BME280;10636;19.390;-99.256;2023-08-31T05:57:59;78080.44;;;25.78;44.16
20955;BME280;10636;19.390;-99.256;2023-08-31T06:00:32;78069.69;;;25.78;44.05
20955;BME280;10636;19.390;-99.256;2023-08-31T06:03:11;78075.13;;;25.80;44.21
20955;BME280;10636;19.390;-99.256;2023-08-31T06:05:41;78061.00;;;25.80;44.19
20955;BME280;10636;19.390;-99.256;2023-08-31T06:08:13;78067.06;;;25.80;44.20
20955;BME280;10636;19.390;-99.256;2023-08-31T06:10:43;78065.69;;;25.79;44.23
20955;BME280;10636;19.390;-99.256;2023-08-31T06:13:16;78067.06;;;25.80;44.37
20955;BME280;10636;19.390;-99.256;2023-08-31T06:15:46;78071.06;;;25.79;44.19
20955;BME280;10636;19.390;-99.256;2023-08-31T06:18:20;78068.44;;;25.81;44.35
20955;BME280;10636;19.390;-99.256;2023-08-31T06:20:51;78068.44;;;25.81;44.18
20955;BME280;10636;19.390;-99.256;2023-08-31T06:23:23;78060.31;;;25.79;44.15
20955;BME280;10636;19.390;-99.256;2023-08-31T06:25:56;78065.00;;;25.79;44.30
20955;BME280;10636;19.390;-99.256;2023-08-31T06:28:26;78056.94;;;25.79;44.32
20955;BME280;10636;19.390;-99.256;2023-08-31T06:30:56;78050.59;;;25.72;44.44
20955;BME280;10636;19.390;-99.256;2023-08-31T06:33:29;78057.53;;;25.77;44.63
20955;BME280;10636;19.390;-99.256;2023-08-31T06:35:59;78058.94;;;25.78;44.40
20955;BME280;10636;19.390;-99.256;2023-08-31T06:38:30;78050.88;;;25.78;44.57
20955;BME280;10636;19.390;-99.256;2023-08-31T06:41:05;78058.94;;;25.78;44.32
20955;BME280;10636;19.390;-99.256;2023-08-31T06:43:34;78052.84;;;25.78;44.20
20955;BME280;10636;19.390;-99.256;2023-08-31T06:46:05;78057.53;;;25.77;44.42
20955;BME280;10636;19.390;-99.256;2023-08-31T06:48:34;78054.84;;;25.77;44.61
20955;BME280;10636;19.390;-99.256;2023-08-31T06:51:06;78053.56;;;25.78;44.46
20955;BME280;10636;19.390;-99.256;2023-08-31T06:53:43;78053.56;;;25.78;44.48
20955;BME280;10636;19.390;-99.256;2023-08-31T06:56:14;78039.41;;;25.78;44.61
20955;BME280;10636;19.390;-99.256;2023-08-31T06:58:43;78042.09;;;25.78;44.46
20955;BME280;10636;19.390;-99.256;2023-08-31T07:01:14;78041.41;;;25.77;44.72
20955;BME280;10636;19.390;-99.256;2023-08-31T07:03:45;78042.81;;;25.78;44.49
20955;BME280;10636;19.390;-99.256;2023-08-31T07:06:16;78036.03;;;25.77;44.37
20955;BME280;10636;19.390;-99.256;2023-08-31T07:08:50;78037.34;;;25.76;44.56
20955;BME280;10636;19.390;-99.256;2023-08-31T07:11:20;78030.59;;;25.75;44.50
20955;BME280;10636;19.390;-99.256;2023-08-31T07:13:50;78032.59;;;25.75;44.49
20955;BME280;10636;19.390;-99.256;2023-08-31T07:16:21;78028.53;;;25.74;44.51
20955;BME280;10636;19.390;-99.256;2023-08-31T07:18:57;78037.28;;;25.74;44.67
20955;BME280;10636;19.390;-99.256;2023-08-31T07:21:26;78027.84;;;25.73;44.70
20955;BME280;10636;19.390;-99.256;2023-08-31T07:24:00;78031.22;;;25.74;44.39
20955;BME280;10636;19.390;-99.256;2023-08-31T07:26:29;78034.59;;;25.74;44.65
20955;BME280;10636;19.390;-99.256;2023-08-31T07:28:59;78041.25;;;25.73;44.59
20955;BME280;10636;19.390;-99.256;2023-08-31T07:31:28;78035.19;;;25.73;44.61
20955;BME280;10636;19.390;-99.256;2023-08-31T07:33:57;78037.88;;;25.73;44.42
20955;BME280;10636;19.390;-99.256;2023-08-31T07:36:27;78041.09;;;25.69;44.85
20955;BME280;10636;19.390;-99.256;2023-08-31T07:38:56;78031.75;;;25.70;44.61
20955;BME280;10636;19.390;-99.256;2023-08-31T07:41:27;78031.06;;;25.70;44.69
20955;BME280;10636;19.390;-99.256;2023-08-31T07:43:58;78029.06;;;25.70;44.54
20955;BME280;10636;19.390;-99.256;2023-08-31T07:46:29;78035.75;;;25.69;44.76
20955;BME280;10636;19.390;-99.256;2023-08-31T07:48:58;78035.06;;;25.69;44.63
20955;BME280;10636;19.390;-99.256;2023-08-31T07:51:27;78036.44;;;25.70;44.80
20955;BME280;10636;19.390;-99.256;2023-08-31T07:53:56;78021.63;;;25.69;44.61
20955;BME280;10636;19.390;-99.256;2023-08-31T07:56:27;78027.00;;;25.69;44.81
20955;BME280;10636;19.390;-99.256;2023-08-31T07:58:57;78026.31;;;25.68;44.79
20955;BME280;10636;19.390;-99.256;2023-08-31T08:01:26;78022.22;;;25.67;44.54
20955;BME280;10636;19.390;-99.256;2023-08-31T08:03:55;78021.53;;;25.67;44.75
20955;BME280;10636;19.390;-99.256;2023-08-31T08:06:24;78024.84;;;25.65;44.77
20955;BME280;10636;19.390;-99.256;2023-08-31T08:08:53;78015.47;;;25.66;44.72
20955;BME280;10636;19.390;-99.256;2023-08-31T08:11:41;78014.09;;;25.65;44.86
20955;BME280;10636;19.390;-99.256;2023-08-31T08:14:10;78017.47;;;25.66;44.83
20955;BME280;10636;19.390;-99.256;2023-08-31T08:16:40;78014.03;;;25.63;44.73
20955;BME280;10636;19.390;-99.256;2023-08-31T08:19:10;78015.31;;;25.62;45.19
20955;BME280;10636;19.390;-99.256;2023-08-31T08:21:39;78011.25;;;25.61;45.17
20955;BME280;10636;19.390;-99.256;2023-08-31T08:24:08;78011.25;;;25.61;45.12
20955;BME280;10636;19.390;-99.256;2023-08-31T08:26:37;78003.19;;;25.61;44.93
20955;BME280;10636;19.390;-99.256;2023-08-31T08:29:08;78000.50;;;25.61;44.95
20955;BME280;10636;19.390;-99.256;2023-08-31T08:31:37;78003.19;;;25.61;44.79
20955;BME280;10636;19.390;-99.256;2023-08-31T08:34:06;78008.56;;;25.61;45.10
20955;BME280;10636;19.390;-99.256;2023-08-31T08:36:39;77997.78;;;25.59;44.88
20955;BME280;10636;19.390;-99.256;2023-08-31T08:39:08;77999.09;;;25.58;45.04
20955;BME280;10636;19.390;-99.256;2023-08-31T08:41:37;78004.44;;;25.58;44.96
20955;BME280;10636;19.390;-99.256;2023-08-31T08:44:09;77997.69;;;25.57;45.06
20955;BME280;10636;19.390;-99.256;2023-08-31T08:46:40;77999.00;;;25.56;45.38
20955;BME280;10636;19.390;-99.256;2023-08-31T08:49:09;77989.56;;;25.55;45.22
20955;BME280;10636;19.390;-99.256;2023-08-31T08:51:39;77994.25;;;25.54;45.06
20955;BME280;10636;19.390;-99.256;2023-08-31T08:54:08;77992.72;;;25.49;45.25
20955;BME280;10636;19.390;-99.256;2023-08-31T08:56:38;77996.25;;;25.54;45.16
20955;BME280;10636;19.390;-99.256;2023-08-31T08:59:09;77996.25;;;25.54;45.21
20955;BME280;10636;19.390;-99.256;2023-08-31T09:01:40;77988.09;;;25.52;45.21
20955;BME280;10636;19.390;-99.256;2023-08-31T09:04:10;77994.88;;;25.53;45.23
20955;BME280;10636;19.390;-99.256;2023-08-31T09:06:39;77987.50;;;25.53;45.10
20955;BME280;10636;19.390;-99.256;2023-08-31T09:09:09;77986.81;;;25.53;45.14
20955;BME280;10636;19.390;-99.256;2023-08-31T09:11:39;77984.72;;;25.51;45.20
20955;BME280;10636;19.390;-99.256;2023-08-31T09:14:19;77982.72;;;25.52;45.16
20955;BME280;10636;19.390;-99.256;2023-08-31T09:16:49;77986.13;;;25.52;45.01
20955;BME280;10636;19.390;-99.256;2023-08-31T09:19:19;77982.72;;;25.52;45.34
20955;BME280;10636;19.390;-99.256;2023-08-31T09:21:49;77985.41;;;25.52;45.28
20955;BME280;10636;19.390;-99.256;2023-08-31T09:24:18;77982.66;;;25.50;45.43
20955;BME280;10636;19.390;-99.256;2023-08-31T09:26:52;77982.03;;;25.51;45.11
20955;BME280;10636;19.390;-99.256;2023-08-31T09:29:23;77978.66;;;25.51;45.08
20955;BME280;10636;19.390;-99.256;2023-08-31T09:31:52;77977.28;;;25.50;45.17
20955;BME280;10636;19.390;-99.256;2023-08-31T09:34:21;77973.22;;;25.49;44.84
20955;BME280;10636;19.390;-99.256;2023-08-31T09:37:05;77969.19;;;25.48;45.14
20955;BME280;10636;19.390;-99.256;2023-08-31T09:39:39;77970.47;;;25.47;45.24
20955;BME280;10636;19.390;-99.256;2023-08-31T09:42:09;77972.47;;;25.46;45.60
20955;BME280;10636;19.390;-99.256;2023-08-31T09:44:45;77965.13;;;25.47;45.43
20955;BME280;10636;19.390;-99.256;2023-08-31T09:47:14;77964.41;;;25.46;45.64
20955;BME280;10636;19.390;-99.256;2023-08-31T09:49:44;77967.81;;;25.47;45.54
20955;BME280;10636;19.390;-99.256;2023-08-31T09:52:15;77961.72;;;25.46;45.26
20955;BME280;10636;19.390;-99.256;2023-08-31T09:54:46;77967.81;;;25.47;45.36
20955;BME280;10636;19.390;-99.256;2023-08-31T09:57:19;77963.66;;;25.44;45.54
20955;BME280;10636;19.390;-99.256;2023-08-31T09:59:54;77965.03;;;25.45;45.50
20955;BME280;10636;19.390;-99.256;2023-08-31T10:02:23;77962.97;;;25.43;45.55
20955;BME280;10636;19.390;-99.256;2023-08-31T10:04:55;77959.59;;;25.43;45.23
20955;BME280;10636;19.390;-99.256;2023-08-31T10:07:27;77964.97;;;25.43;45.80
20955;BME280;10636;19.390;-99.256;2023-08-31T10:09:57;77957.59;;;25.43;45.68
20955;BME280;10636;19.390;-99.256;2023-08-31T10:12:27;77959.59;;;25.43;45.74
20955;BME280;10636;19.390;-99.256;2023-08-31T10:14:58;77963.59;;;25.42;45.58
20955;BME280;10636;19.390;-99.256;2023-08-31T10:17:29;77959.50;;;25.41;45.82
20955;BME280;10636;19.390;-99.256;2023-08-31T10:19:58;77966.88;;;25.40;46.09
20955;BME280;10636;19.390;-99.256;2023-08-31T10:22:28;77968.88;;;25.40;46.06
20955;BME280;10636;19.390;-99.256;2023-08-31T10:25:03;77971.56;;;25.40;45.79
20955;BME280;10636;19.390;-99.256;2023-08-31T10:27:37;77972.88;;;25.39;46.08
20955;BME280;10636;19.390;-99.256;2023-08-31T10:30:25;77964.66;;;25.35;46.35
20955;BME280;10636;19.390;-99.256;2023-08-31T10:33:23;77971.50;;;25.38;45.98
20955;BME280;10636;19.390;-99.256;2023-08-31T10:35:54;77986.22;;;25.37;45.72
20955;BME280;10636;19.390;-99.256;2023-08-31T10:38:26;77979.44;;;25.36;46.16
20955;BME280;10636;19.390;-99.256;2023-08-31T10:41:19;77986.13;;;25.35;46.17
20955;BME280;10636;19.390;-99.256;2023-08-31T10:43:50;77984.69;;;25.32;45.76
20955;BME280;10636;19.390;-99.256;2023-08-31T10:46:26;77987.44;;;25.34;46.30
20955;BME280;10636;19.390;-99.256;2023-08-31T10:48:56;77999.50;;;25.33;46.08
20955;BME280;10636;19.390;-99.256;2023-08-31T10:51:26;78000.81;;;25.32;46.04
20955;BME280;10636;19.390;-99.256;2023-08-31T10:54:06;77994.03;;;25.30;46.34
20955;BME280;10636;19.390;-99.256;2023-08-31T10:56:52;78004.75;;;25.30;46.40
20955;BME280;10636;19.390;-99.256;2023-08-31T10:59:22;78007.44;;;25.30;45.99
20955;BME280;10636;19.390;-99.256;2023-08-31T11:01:54;78009.44;;;25.30;46.03
20955;BME280;10636;19.390;-99.256;2023-08-31T11:04:24;78000.72;;;25.29;45.94
20955;BME280;10636;19.390;-99.256;2023-08-31T11:07:13;78004.75;;;25.30;46.57
20955;BME280;10636;19.390;-99.256;2023-08-31T11:09:43;78018.19;;;25.30;46.57
20955;BME280;10636;19.390;-99.256;2023-08-31T11:12:13;78010.75;;;25.29;46.52
20955;BME280;10636;19.390;-99.256;2023-08-31T11:14:42;78007.38;;;25.28;46.42
20955;BME280;10636;19.390;-99.256;2023-08-31T11:17:12;78008.00;;;25.27;46.53
20955;BME280;10636;19.390;-99.256;2023-08-31T11:19:41;78008.00;;;25.27;46.85
20955;BME280;10636;19.390;-99.256;2023-08-31T11:22:10;78005.78;;;25.21;47.15
20955;BME280;10636;19.390;-99.256;2023-08-31T11:24:39;78012.69;;;25.26;46.94
20955;BME280;10636;19.390;-99.256;2023-08-31T11:27:11;78010.69;;;25.27;46.73
20955;BME280;10636;19.390;-99.256;2023-08-31T11:29:43;78015.97;;;25.25;46.84
20955;BME280;10636;19.390;-99.256;2023-08-31T11:32:14;78016.59;;;25.23;46.86
20955;BME280;10636;19.390;-99.256;2023-08-31T11:34:44;78023.34;;;25.24;47.00
20955;BME280;10636;19.390;-99.256;2023-08-31T11:37:14;78010.38;;;25.19;47.42
20955;BME280;10636;19.390;-99.256;2023-08-31T11:39:49;78026.03;;;25.24;47.17
20955;BME280;10636;19.390;-99.256;2023-08-31T11:42:19;78021.28;;;25.23;47.35
20955;BME280;10636;19.390;-99.256;2023-08-31T11:44:48;78023.28;;;25.22;47.38
20955;BME280;10636;19.390;-99.256;2023-08-31T11:47:21;78024.56;;;25.21;47.48
20955;BME280;10636;19.390;-99.256;2023-08-31T11:49:50;78031.31;;;25.22;48.08
20955;BME280;10636;19.390;-99.256;2023-08-31T11:52:19;78026.63;;;25.23;47.78
20955;BME280;10636;19.390;-99.256;2023-08-31T11:54:52;78025.94;;;25.22;48.43
20955;BME280;10636;19.390;-99.256;2023-08-31T11:57:25;78035.31;;;25.21;48.32
20955;BME280;10636;19.390;-99.256;2023-08-31T11:59:55;78040.00;;;25.21;48.31
20955;BME280;10636;19.390;-99.256;2023-08-31T12:02:25;78049.41;;;25.22;48.58
20955;BME280;10636;19.390;-99.256;2023-08-31T12:04:56;78046.13;;;25.23;48.46
20955;BME280;10636;19.390;-99.256;2023-08-31T12:07:25;78052.78;;;25.22;48.54
20955;BME280;10636;19.390;-99.256;2023-08-31T12:09:53;78046.06;;;25.21;48.45
20955;BME280;10636;19.390;-99.256;2023-08-31T12:12:22;78050.63;;;25.19;48.60
20955;BME280;10636;19.390;-99.256;2023-08-31T12:14:53;78047.34;;;25.20;48.47
20955;BME280;10636;19.390;-99.256;2023-08-31T12:17:21;78048.63;;;25.19;48.32
20955;BME280;10636;19.390;-99.256;2023-08-31T12:19:52;78047.25;;;25.18;48.66
20955;BME280;10636;19.390;-99.256;2023-08-31T12:22:20;78047.94;;;25.19;48.13
20955;BME280;10636;19.390;-99.256;2023-08-31T12:24:49;78038.53;;;25.18;48.42
20955;BME280;10636;19.390;-99.256;2023-08-31T12:27:17;78041.22;;;25.18;48.05
20955;BME280;10636;19.390;-99.256;2023-08-31T12:29:46;78050.56;;;25.17;48.17
20955;BME280;10636;19.390;-99.256;2023-08-31T12:32:14;78046.56;;;25.18;48.23
20955;BME280;10636;19.390;-99.256;2023-08-31T12:34:44;78041.91;;;25.18;48.23
20955;BME280;10636;19.390;-99.256;2023-08-31T12:37:14;78041.91;;;25.18;48.27
20955;BME280;10636;19.390;-99.256;2023-08-31T12:39:43;78037.78;;;25.15;48.35
20955;BME280;10636;19.390;-99.256;2023-08-31T12:42:12;78040.97;;;25.12;48.67
20955;BME280;10636;19.390;-99.256;2023-08-31T12:44:40;78029.47;;;25.09;48.39
20955;BME280;10636;19.390;-99.256;2023-08-31T12:47:09;78037.44;;;25.07;48.39
20955;BME280;10636;19.390;-99.256;2023-08-31T12:49:37;78043.31;;;25.03;48.44
20955;BME280;10636;19.390;-99.256;2023-08-31T12:52:09;78039.19;;;25.00;48.43
20955;BME280;10636;19.390;-99.256;2023-08-31T12:54:39;78036.41;;;24.98;48.63
20955;BME280;10636;19.390;-99.256;2023-08-31T12:57:07;78036.97;;;24.95;48.32
20955;BME280;10636;19.390;-99.256;2023-08-31T12:59:36;78043.53;;;24.92;48.26
20955;BME280;10636;19.390;-99.256;2023-08-31T13:02:04;78043.53;;;24.92;48.39
20955;BME280;10636;19.390;-99.256;2023-08-31T13:04:37;78040.09;;;24.89;48.41
20955;BME280;10636;19.390;-99.256;2023-08-31T13:07:06;78048.75;;;24.88;48.19
20955;BME280;10636;19.390;-99.256;2023-08-31T13:09:34;78044.69;;;24.87;48.30
20955;BME280;10636;19.390;-99.256;2023-08-31T13:12:05;78045.31;;;24.85;48.04
20955;BME280;10636;19.390;-99.256;2023-08-31T13:14:33;78052.66;;;24.85;48.29
20955;BME280;10636;19.390;-99.256;2023-08-31T13:17:05;78049.81;;;24.81;47.94
20955;BME280;10636;19.390;-99.256;2023-08-31T13:19:34;78048.44;;;24.80;47.90
20955;BME280;10636;19.390;-99.256;2023-08-31T13:22:03;78052.44;;;24.78;47.62
20955;BME280;10636;19.390;-99.256;2023-08-31T13:24:31;78064.44;;;24.77;47.35
20955;BME280;10636;19.390;-99.256;2023-08-31T13:27:03;78056.31;;;24.75;47.09
20955;BME280;10636;19.390;-99.256;2023-08-31T13:29:33;78060.91;;;24.73;47.40
20955;BME280;10636;19.390;-99.256;2023-08-31T13:32:02;78072.25;;;24.71;47.29
20955;BME280;10636;19.390;-99.256;2023-08-31T13:34:31;78074.22;;;24.71;47.38
20955;BME280;10636;19.390;-99.256;2023-08-31T13:36:59;78077.53;;;24.69;47.37
20955;BME280;10636;19.390;-99.256;2023-08-31T13:39:33;78081.53;;;24.68;47.14
20955;BME280;10636;19.390;-99.256;2023-08-31T13:42:02;78077.44;;;24.67;47.66
20955;BME280;10636;19.390;-99.256;2023-08-31T13:44:34;78081.41;;;24.66;47.46
20955;BME280;10636;19.390;-99.256;2023-08-31T13:47:03;78084.03;;;24.64;47.38
20955;BME280;10636;19.390;-99.256;2023-08-31T13:49:35;78090.78;;;24.65;47.35
20955;BME280;10636;19.390;-99.256;2023-08-31T13:52:04;78088.09;;;24.65;47.40
20955;BME280;10636;19.390;-99.256;2023-08-31T13:54:34;78086.03;;;24.64;47.83
20955;BME280;10636;19.390;-99.256;2023-08-31T13:57:03;78090.00;;;24.63;48.14
20955;BME280;10636;19.390;-99.256;2023-08-31T13:59:33;78087.91;;;24.61;47.70
20955;BME280;10636;19.390;-99.256;2023-08-31T14:02:02;78091.91;;;24.60;48.04
20955;BME280;10636;19.390;-99.256;2023-08-31T14:04:31;78093.91;;;24.60;48.27
20955;BME280;10636;19.390;-99.256;2023-08-31T14:07:00;78093.09;;;24.57;48.51
20955;BME280;10636;19.390;-99.256;2023-08-31T14:09:29;78094.28;;;24.52;48.29
20955;BME280;10636;19.390;-99.256;2023-08-31T14:11:58;78091.41;;;24.48;48.58
20955;BME280;10636;19.390;-99.256;2023-08-31T14:14:27;78108.03;;;24.44;48.46
20955;BME280;10636;19.390;-99.256;2023-08-31T14:17:00;78103.84;;;24.41;48.48
20955;BME280;10636;19.390;-99.256;2023-08-31T14:19:33;78111.13;;;24.39;48.83
20955;BME280;10636;19.390;-99.256;2023-08-31T14:22:03;78103.03;;;24.37;49.14
20955;BME280;10636;19.390;-99.256;2023-08-31T14:24:32;78110.38;;;24.36;49.55
20955;BME280;10636;19.390;-99.256;2023-08-31T14:27:01;78106.88;;;24.34;48.92
20955;BME280;10636;19.390;-99.256;2023-08-31T14:29:30;78108.09;;;24.31;49.72
20955;BME280;10636;19.390;-99.256;2023-08-31T14:32:01;78112.06;;;24.30;49.03
20955;BME280;10636;19.390;-99.256;2023-08-31T14:34:29;78114.66;;;24.27;49.75
20955;BME280;10636;19.390;-99.256;2023-08-31T14:36:59;78115.97;;;24.26;49.65
20955;BME280;10636;19.390;-99.256;2023-08-31T14:39:28;78117.84;;;24.24;49.17
20955;BME280;10636;19.390;-99.256;2023-08-31T14:41:57;78125.13;;;24.21;49.28
20955;BME280;10636;19.390;-99.256;2023-08-31T14:44:26;78119.78;;;24.21;49.54
20955;BME280;10636;19.390;-99.256;2023-08-31T14:46:56;78123.75;;;24.20;50.53
20955;BME280;10636;19.390;-99.256;2023-08-31T14:49:27;78128.41;;;24.20;50.11
20955;BME280;10636;19.390;-99.256;2023-08-31T14:51:56;78134.31;;;24.16;50.48
20955;BME280;10636;19.390;-99.256;2023-08-31T14:54:26;78127.38;;;24.11;50.66
20955;BME280;10636;19.390;-99.256;2023-08-31T14:56:56;78138.09;;;24.11;50.59
20955;BME280;10636;19.390;-99.256;2023-08-31T14:59:25;78135.31;;;24.09;51.23
20955;BME280;10636;19.390;-99.256;2023-08-31T15:01:53;78132.56;;;24.07;51.93
20955;BME280;10636;19.390;-99.256;2023-08-31T15:04:22;78131.88;;;24.07;51.36
20955;BME280;10636;19.390;-99.256;2023-08-31T15:06:53;78128.41;;;24.04;51.68
20955;BME280;10636;19.390;-99.256;2023-08-31T15:09:25;78127.03;;;24.03;51.65
20955;BME280;10636;19.390;-99.256;2023-08-31T15:11:54;78137.66;;;24.01;52.13
20955;BME280;10636;19.390;-99.256;2023-08-31T15:14:22;78127.19;;;23.91;51.88
20955;BME280;10636;19.390;-99.256;2023-08-31T15:16:52;78129.25;;;23.93;52.83
20955;BME280;10636;19.390;-99.256;2023-08-31T15:19:23;78133.59;;;24.00;52.37
20955;BME280;10636;19.390;-99.256;2023-08-31T15:21:54;78138.97;;;24.00;52.59
20955;BME280;10636;19.390;-99.256;2023-08-31T15:24:22;78140.34;;;24.01;52.61
20955;BME280;10636;19.390;-99.256;2023-08-31T15:26:51;78140.22;;;23.99;53.04
20955;BME280;10636;19.390;-99.256;2023-08-31T15:29:21;78136.28;;;24.00;52.89
20955;BME280;10636;19.390;-99.256;2023-08-31T15:31:50;78131.63;;;24.00;52.79
20955;BME280;10636;19.390;-99.256;2023-08-31T15:34:19;78141.72;;;24.02;53.45
20955;BME280;10636;19.390;-99.256;2023-08-31T15:36:47;78128.94;;;24.00;52.69
20955;BME280;10636;19.390;-99.256;2023-08-31T15:39:17;78125.72;;;24.04;52.73
20955;BME280;10636;19.390;-99.256;2023-08-31T15:41:46;78125.81;;;24.06;53.18
20955;BME280;10636;19.390;-99.256;2023-08-31T15:44:15;78131.25;;;24.08;53.06
20955;BME280;10636;19.390;-99.256;2023-08-31T15:46:44;78117.69;;;24.04;52.55
20955;BME280;10636;19.390;-99.256;2023-08-31T15:49:12;78125.47;;;24.14;52.71
20955;BME280;10636;19.390;-99.256;2023-08-31T15:51:44;78115.53;;;24.16;52.38
20955;BME280;10636;19.390;-99.256;2023-08-31T15:54:13;78127.03;;;24.19;52.39
20955;BME280;10636;19.390;-99.256;2023-08-31T15:56:43;78125.13;;;24.21;52.70
20955;BME280;10636;19.390;-99.256;2023-08-31T15:59:12;78127.91;;;24.23;52.29
20955;BME280;10636;19.390;-99.256;2023-08-31T16:01:40;78126.50;;;24.22;51.98
20955;BME280;10636;19.390;-99.256;2023-08-31T16:04:10;78136.19;;;24.30;51.82
20955;BME280;10636;19.390;-99.256;2023-08-31T16:06:38;78129.44;;;24.29;51.64
20955;BME280;10636;19.390;-99.256;2023-08-31T16:09:07;78139.03;;;24.34;51.40
20955;BME280;10636;19.390;-99.256;2023-08-31T16:11:38;78142.53;;;24.36;50.87
20955;BME280;10636;19.390;-99.256;2023-08-31T16:14:08;78139.84;;;24.36;51.45
20955;BME280;10636;19.390;-99.256;2023-08-31T16:16:36;78134.75;;;24.42;51.26
20955;BME280;10636;19.390;-99.256;2023-08-31T16:19:08;78131.53;;;24.46;50.82
20955;BME280;10636;19.390;-99.256;2023-08-31T16:21:37;78132.41;;;24.50;50.88
20955;BME280;10636;19.390;-99.256;2023-08-31T16:24:06;78130.50;;;24.53;50.55
20955;BME280;10636;19.390;-99.256;2023-08-31T16:26:35;78126.59;;;24.56;50.53
20955;BME280;10636;19.390;-99.256;2023-08-31T16:29:04;78125.28;;;24.57;50.39
20955;BME280;10636;19.390;-99.256;2023-08-31T16:31:34;78140.19;;;24.60;49.76
20955;BME280;10636;19.390;-99.256;2023-08-31T16:34:03;78137.66;;;24.64;49.58
20955;BME280;10636;19.390;-99.256;2023-08-31T16:36:32;78127.69;;;24.67;49.59
20955;BME280;10636;19.390;-99.256;2023-08-31T16:39:00;78139.13;;;24.67;49.55
20955;BME280;10636;19.390;-99.256;2023-08-31T16:41:30;78133.94;;;24.71;49.41
20955;BME280;10636;19.390;-99.256;2023-08-31T16:43:59;78132.72;;;24.74;49.38
20955;BME280;10636;19.390;-99.256;2023-08-31T16:46:28;78132.91;;;24.78;49.13
20955;BME280;10636;19.390;-99.256;2023-08-31T16:48:59;78130.28;;;24.81;49.47
20955;BME280;10636;19.390;-99.256;2023-08-31T16:51:31;78130.53;;;24.87;49.34
20955;BME280;10636;19.390;-99.256;2023-08-31T16:54:02;78128.00;;;24.91;49.48
20955;BME280;10636;19.390;-99.256;2023-08-31T16:56:32;78124.81;;;24.94;48.86
20955;BME280;10636;19.390;-99.256;2023-08-31T16:59:00;78126.25;;;24.97;48.77
20955;BME280;10636;19.390;-99.256;2023-08-31T17:01:29;78112.16;;;24.97;48.85
20955;BME280;10636;19.390;-99.256;2023-08-31T17:04:00;78122.44;;;25.02;49.08
20955;BME280;10636;19.390;-99.256;2023-08-31T17:06:30;78118.53;;;25.06;48.73
20955;BME280;10636;19.390;-99.256;2023-08-31T17:08:58;78118.03;;;25.09;48.69
20955;BME280;10636;19.390;-99.256;2023-08-31T17:11:33;78118.19;;;25.13;48.60
20955;BME280;10636;19.390;-99.256;2023-08-31T17:14:02;78114.28;;;25.16;48.33
20955;BME280;10636;19.390;-99.256;2023-08-31T17:16:33;78119.72;;;25.18;48.45
20955;BME280;10636;19.390;-99.256;2023-08-31T17:19:03;78109.78;;;25.21;48.19
20955;BME280;10636;19.390;-99.256;2023-08-31T17:21:32;78111.91;;;25.24;48.37
20955;BME280;10636;19.390;-99.256;2023-08-31T17:24:00;78109.41;;;25.28;48.16
20955;BME280;10636;19.390;-99.256;2023-08-31T17:26:29;78108.09;;;25.29;47.97
20955;BME280;10636;19.390;-99.256;2023-08-31T17:29:02;78098.66;;;25.28;47.72